الصفحة الرئيسية
METAR-TAF:

METAR-TAF

مطار :

لنكران, أذربيجان

دائرة عرض: 38-44-47N, خط طول: 048-49-04E, ارتفاع: 9 متر

مراقبة الطقس الحالي

تاريخ ووقت الإصدار 42 دقيقة قبل الساعة 19:00UTC
ريح 4 عقدة من الشمال/الشمال الغربي
درجة الحرارة 2°درجة مئوية
الرطوبة 69%
ضغط 1039 hPa
الرؤية 10 كم أو أكثر
غيوم مفككة على ارتفاع 4800 قدم

METAR: UBBL 251900Z 33004KT 9999 BKN048 02/M03 Q1039 NOSIG

زمن: 23:42 (19:42 UTC)

توقعات

تاريخ ووقت الإصدار 2ساعات و 35 دقيقة قبل الساعة 17:07UTC
التوقعات صالحة من25 الساعة 18 UTC إلى 26 الساعة 18 UTC
ريح 5 عقدة من الشمال الغربي
الرؤية 10 كم أو أكثر
غيوم مفككة على ارتفاع 3000 قدم
مؤقت
من 26 الساعة 00 UTC إلى 26 الساعة 06 UTC
غيوم متفرقة على ارتفاع 1500 قدم
أصبح
من 26 الساعة 08 UTC إلى 26 الساعة 10 UTC
ريح 12 عقدة من الشمال
غيوم متفرقة على ارتفاع 4000 قدم

TAF: UBBL 251707Z 2518/2618 32005KT 9999 BKN030 TX05/2610Z TN00/2602Z TEMPO 2600/2606 SCT015 BECMG 2608/2610 36012KT SCT040

أرصاد الطقس والتوقعات من أكثر من 4000 مطار (تقارير الطقس للمطار METAR والتنبؤ بالطقس بالمطارTAF).

المحطات المتاحة هي النقط الصفراء والحمراء على الخريطة.

حرك المؤشر فوق النقطة لمعرفة اسم المحطة.

ثم انقر لمعرفة أرصاد وتوقعات الطقس.

لتغيير الخارطة: اضغط على الأزرار الخضراء مع رمز الصليب الأسود للتكبير. على الزر الأخضر مع شرطة للتصغير، أو على الأسهم الخضراء للخرائط المجاورة.


METAR-TAF: